Brunehault, Belgium
Current Conditions -  °F | °C
As of 6:50 PM on Thursday 23 Oct 2014 (Local Time) from EBCI Reporting Station
Broken Clouds Broken Clouds  
Wind Chill: 12°   Ceiling: 3800
Heat Index: 12°   Visibility: 6mi
Dew Point:   Wind: 7mph
Humidity: 82%   Direction: 180°S
Pressure: 30.18"   Gusts: NA
Location:  50.51°N, 4.43°E
Report Text: EBCI 231650Z 18006KT 150V210 9999 FEW020 BKN038 12/09 Q1022 NOSIG
Loading
Personal Weather Stations






























Interactive Weather Map
Tropical Storm Tracking
New forecast layout! Learn more

10-Day Weather Forecast

Advertisements
Track Severe Weather on mobile